createdAt,value
2018-03-28T00:00:18.890Z,93.17
2018-03-28T00:00:59.246Z,93.17
2018-03-28T00:01:39.659Z,93.55
2018-03-28T00:02:20.053Z,93.27
2018-03-28T00:03:00.433Z,92.79
2018-03-28T00:03:40.845Z,93.51
2018-03-28T00:04:21.274Z,93.27
2018-03-28T00:05:01.613Z,93.17
2018-03-28T00:05:42.050Z,93.17
2018-03-28T00:06:22.461Z,94.03
2018-03-28T00:08:19.954Z,92.79
2018-03-28T00:09:00.223Z,92.89
2018-03-28T00:09:40.634Z,93.08
2018-03-28T00:10:21.033Z,93.17
2018-03-28T00:11:01.442Z,92.41
2018-03-28T00:11:41.853Z,92.6
2018-03-28T00:12:22.241Z,92.32
2018-03-28T00:13:02.636Z,91.74
2018-03-28T00:13:43.043Z,91.74
2018-03-28T00:14:23.412Z,91.55
2018-03-28T00:15:03.817Z,91.08
2018-03-28T00:15:44.224Z,90.98
2018-03-28T00:16:24.601Z,91.08
2018-03-28T00:17:04.999Z,91.46
2018-03-28T00:17:45.375Z,92.13
2018-03-28T00:18:25.802Z,91.94
2018-03-28T00:19:06.161Z,92.69
2018-03-28T00:19:46.559Z,92.89
2018-03-28T00:22:04.109Z,93.08
2018-03-28T00:22:44.530Z,92.79
2018-03-28T00:23:24.980Z,93.08
2018-03-28T00:24:05.332Z,92.6
2018-03-28T00:24:45.749Z,93.08
2018-03-28T00:25:26.155Z,92.32
2018-03-28T00:26:06.583Z,92.22
2018-03-28T00:26:46.968Z,91.94
2018-03-28T00:27:27.398Z,92.13
2018-03-28T00:28:07.807Z,91.22
2018-03-28T00:28:48.148Z,91.41
2018-03-28T00:29:28.568Z,91.6
2018-03-28T00:30:08.952Z,90.93
2018-03-28T00:30:49.348Z,90.55
2018-03-28T00:31:29.754Z,90.36
2018-03-28T00:32:10.163Z,90.55
2018-03-28T00:32:50.575Z,90.55
2018-03-28T00:33:30.952Z,91.13
2018-03-28T00:34:11.343Z,90.55
2018-03-28T00:34:51.784Z,91.22
2018-03-28T00:35:32.115Z,91.22
2018-03-28T00:36:12.509Z,91.36
2018-03-28T00:36:52.914Z,91.55
2018-03-28T00:37:33.323Z,91.65
2018-03-28T00:38:13.774Z,91.55
2018-03-28T00:38:54.171Z,91.74
2018-03-28T00:39:34.545Z,92.32
2018-03-28T00:40:14.966Z,92.79
2018-03-28T00:42:12.388Z,92.32
2018-03-28T00:42:52.756Z,91.94
2018-03-28T00:43:33.156Z,91.74
2018-03-28T00:44:13.532Z,91.94
2018-03-28T00:44:53.946Z,91.84
2018-03-28T00:45:34.361Z,91.46
2018-03-28T00:46:14.740Z,92.32
2018-03-28T00:46:55.140Z,92.22
2018-03-28T00:47:35.530Z,92.32
2018-03-28T00:48:15.970Z,92.22
2018-03-28T00:48:56.326Z,92.22
2018-03-28T00:49:36.708Z,92.6
2018-03-28T00:50:17.124Z,92.13
2018-03-28T00:50:57.493Z,92.84
2018-03-28T00:51:37.918Z,92.03
2018-03-28T00:52:18.314Z,92.22
2018-03-28T00:52:58.703Z,92.13
2018-03-28T00:53:39.101Z,92.41
2018-03-28T00:54:19.504Z,92.32
2018-03-28T00:54:59.919Z,91.65
2018-03-28T00:55:40.287Z,91.79
2018-03-28T00:56:20.790Z,91.79
2018-03-28T00:57:01.074Z,91.79
2018-03-28T00:57:41.498Z,92.5
2018-03-28T00:59:59.324Z,93.17
2018-03-28T01:00:39.446Z,93.08
2018-03-28T01:01:19.873Z,93.46
2018-03-28T01:02:00.278Z,93.17
2018-03-28T01:02:40.677Z,93.46
2018-03-28T01:03:21.113Z,93.65
2018-03-28T01:04:01.540Z,93.74
2018-03-28T01:04:41.930Z,93.65
2018-03-28T01:05:22.321Z,93.55
2018-03-28T01:06:02.728Z,93.84
2018-03-28T01:06:43.112Z,93.65
2018-03-28T01:07:23.511Z,93.17
2018-03-28T01:08:03.946Z,93.37
2018-03-28T01:08:44.313Z,93.08
2018-03-28T01:09:24.697Z,92.98
2018-03-28T01:10:05.096Z,92.93
2018-03-28T01:10:45.500Z,93.12
2018-03-28T01:11:25.909Z,92.93
2018-03-28T01:12:06.320Z,91.79
2018-03-28T01:12:46.707Z,91.69
2018-03-28T01:13:27.130Z,91.88
2018-03-28T01:14:07.498Z,91.69
2018-03-28T01:14:47.908Z,91.69
2018-03-28T01:15:28.302Z,91.79
2018-03-28T01:16:08.683Z,91.79
2018-03-28T01:16:49.139Z,91.79
2018-03-28T01:17:29.497Z,91.65
2018-03-28T01:18:09.922Z,91.65
2018-03-28T01:18:50.297Z,92.41
2018-03-28T01:19:30.723Z,92.5
2018-03-28T01:20:11.159Z,92.6
2018-03-28T01:20:51.535Z,92.79
2018-03-28T01:21:31.920Z,93.65
2018-03-28T01:22:12.317Z,93.27
2018-03-28T01:22:52.717Z,93.65
2018-03-28T01:23:33.108Z,93.84
2018-03-28T01:24:13.542Z,94.13
2018-03-28T01:24:53.945Z,93.84
2018-03-28T01:25:34.387Z,94.51
2018-03-28T01:26:14.817Z,94.51
2018-03-28T01:26:55.191Z,94.51
2018-03-28T01:27:35.676Z,94.51
2018-03-28T01:28:16.060Z,94.32
2018-03-28T01:28:56.425Z,94.7
2018-03-28T01:29:36.831Z,95.08
2018-03-28T01:30:17.212Z,95.36
2018-03-28T01:32:04.680Z,96.03
2018-03-28T01:32:44.884Z,95.84
2018-03-28T01:33:25.310Z,95.75
2018-03-28T01:34:05.716Z,95.56
2018-03-28T01:34:46.124Z,95.65
2018-03-28T01:35:26.532Z,95.84
2018-03-28T01:36:06.948Z,95.56
2018-03-28T01:36:47.340Z,96.41
2018-03-28T01:37:27.763Z,95.94
2018-03-28T01:38:08.165Z,96.32
2018-03-28T01:38:48.558Z,96.32
2018-03-28T01:39:28.951Z,95.56
2018-03-28T01:40:09.335Z,96.32
2018-03-28T01:40:49.736Z,96.89
2018-03-28T01:41:30.126Z,96.41
2018-03-28T01:42:10.533Z,97.08
2018-03-28T01:42:50.944Z,96.51
2018-03-28T01:43:31.329Z,96.8
2018-03-28T01:44:11.722Z,96.6
2018-03-28T01:44:52.199Z,96.98
2018-03-28T01:45:32.536Z,96.41
2018-03-28T01:46:12.920Z,96.98
2018-03-28T01:46:53.301Z,97.08
2018-03-28T01:47:33.693Z,97.27
2018-03-28T01:48:14.053Z,97.22
2018-03-28T01:48:54.432Z,97.27
2018-03-28T01:49:34.848Z,97.56
2018-03-28T01:50:15.256Z,97.36
2018-03-28T01:50:55.652Z,98.7
2018-03-28T01:51:36.066Z,97.75
2018-03-28T01:52:16.452Z,98.27
2018-03-28T01:52:56.851Z,98.51
2018-03-28T01:53:37.254Z,97.75
2018-03-28T01:54:17.650Z,98.51
2018-03-28T01:54:58.055Z,98.22
2018-03-28T01:55:38.433Z,98.32
2018-03-28T01:56:18.847Z,98.41
2018-03-28T01:56:59.229Z,98.6
2018-03-28T01:57:39.678Z,98.51
2018-03-28T01:58:20.014Z,98.79
2018-03-28T01:59:00.507Z,98.6
2018-03-28T01:59:40.849Z,98.89
2018-03-28T02:00:21.261Z,98.79
2018-03-28T02:01:01.649Z,98.41
2018-03-28T02:01:42.045Z,98.51
2018-03-28T02:02:22.431Z,98.41
2018-03-28T02:03:02.860Z,98.41
2018-03-28T02:03:43.261Z,98.55
2018-03-28T02:04:23.664Z,98.7
2018-03-28T02:05:04.060Z,98.65
2018-03-28T02:05:44.436Z,98.7
2018-03-28T02:06:24.863Z,98.99
2018-03-28T02:07:05.266Z,98.32
2018-03-28T02:07:45.679Z,98.55
2018-03-28T02:08:26.128Z,98.79
2018-03-28T02:09:06.517Z,98.65
2018-03-28T02:09:46.901Z,98.7
2018-03-28T02:10:27.313Z,99.08
2018-03-28T02:11:07.724Z,98.51
2018-03-28T02:11:48.141Z,98.99
2018-03-28T02:12:28.546Z,98.32
2018-03-28T02:13:08.952Z,98.32
2018-03-28T02:13:49.379Z,99.27
2018-03-28T02:14:29.771Z,98.89
2018-03-28T02:15:10.177Z,99.27
2018-03-28T02:15:50.563Z,99.65
2018-03-28T02:16:30.982Z,99.08
2018-03-28T02:17:11.356Z,99.27
2018-03-28T02:17:51.748Z,99.18
2018-03-28T02:18:32.110Z,99.75
2018-03-28T02:19:12.513Z,99.75
2018-03-28T02:19:52.907Z,99.99
2018-03-28T02:20:33.307Z,99.55
2018-03-28T02:21:13.705Z,99.55
2018-03-28T02:21:54.112Z,99.55
2018-03-28T02:22:34.514Z,99.65
2018-03-28T02:23:14.923Z,99.27
2018-03-28T02:23:55.356Z,99.37
2018-03-28T02:24:35.710Z,99.75
2018-03-28T02:25:16.111Z,99.75
2018-03-28T02:25:56.544Z,99.75
2018-03-28T02:26:36.925Z,99.46
2018-03-28T02:27:17.324Z,99.18
2018-03-28T02:27:57.716Z,99.46
2018-03-28T02:28:38.134Z,98.32
2018-03-28T02:29:18.536Z,98.51
2018-03-28T02:29:58.958Z,98.7
2018-03-28T02:30:39.334Z,98.22
2018-03-28T02:31:19.719Z,98.89
2018-03-28T02:32:00.136Z,98.89
2018-03-28T02:32:40.509Z,98.99
2018-03-28T02:33:20.912Z,98.99
2018-03-28T02:34:01.322Z,98.7
2018-03-28T02:34:41.718Z,98.89
2018-03-28T02:35:22.111Z,98.22
2018-03-28T02:36:02.506Z,98.13
2018-03-28T02:36:42.890Z,98.32
2018-03-28T02:37:23.296Z,98.22
2018-03-28T02:38:03.702Z,98.6
2018-03-28T02:38:44.099Z,98.89
2018-03-28T02:39:24.521Z,98.6
2018-03-28T02:40:04.921Z,98.7
2018-03-28T02:40:45.305Z,98.32
2018-03-28T02:41:25.704Z,98.22
2018-03-28T02:42:06.098Z,98.51
2018-03-28T02:42:46.474Z,98.41
2018-03-28T02:43:26.889Z,98.32
2018-03-28T02:44:07.293Z,98.7
2018-03-28T02:44:47.667Z,97.84
2018-03-28T02:45:28.048Z,97.75
2018-03-28T02:46:08.489Z,97.56
2018-03-28T02:46:48.848Z,97.27
2018-03-28T02:47:29.262Z,96.98
2018-03-28T02:48:09.650Z,97.46
2018-03-28T02:48:50.054Z,97.13
2018-03-28T02:49:30.483Z,96.84
2018-03-28T02:50:10.871Z,97.13
2018-03-28T02:50:51.260Z,96.65
2018-03-28T02:51:31.624Z,96.56
2018-03-28T02:52:12.067Z,96.17
2018-03-28T02:52:52.419Z,95.79
2018-03-28T02:53:32.826Z,96.17
2018-03-28T02:54:13.319Z,95.79
2018-03-28T02:54:53.679Z,94.74
2018-03-28T02:55:34.050Z,94.46
2018-03-28T02:56:14.482Z,94.37
2018-03-28T02:56:54.854Z,93.51
2018-03-28T02:57:35.236Z,93.79
2018-03-28T02:58:15.671Z,93.79
2018-03-28T02:58:56.072Z,93.22
2018-03-28T02:59:36.486Z,92.69
2018-03-28T03:00:16.877Z,92.69
2018-03-28T03:00:57.288Z,92.22
2018-03-28T03:01:37.718Z,92.69
2018-03-28T03:02:18.090Z,92.27
2018-03-28T03:02:58.498Z,91.55
2018-03-28T03:03:38.905Z,92.22
2018-03-28T03:04:19.282Z,92.5
2018-03-28T03:04:59.707Z,92.5
2018-03-28T03:05:40.082Z,91.6
2018-03-28T03:06:20.490Z,91.74
2018-03-28T03:07:01.338Z,91.27
2018-03-28T03:09:13.934Z,91.36
2018-03-28T03:09:54.179Z,90.5
2018-03-28T03:10:34.607Z,90.12
2018-03-28T03:11:16.951Z,89.54
2018-03-28T03:11:57.308Z,89.93
2018-03-28T03:12:37.706Z,89.64
2018-03-28T03:13:18.689Z,89.54
2018-03-28T03:13:59.118Z,89.17
2018-03-28T03:14:39.512Z,88.73
2018-03-28T03:15:19.924Z,87.78
2018-03-28T03:16:00.325Z,87.97
2018-03-28T03:16:40.722Z,87.78
2018-03-28T03:17:21.131Z,87.68
2018-03-28T03:18:01.544Z,88.45
2018-03-28T03:18:41.941Z,88.26
2018-03-28T03:19:22.391Z,87.59
2018-03-28T03:20:02.767Z,87.3
2018-03-28T03:20:43.193Z,87.68
2018-03-28T03:21:23.661Z,87.68
2018-03-28T03:22:04.016Z,87.21
2018-03-28T03:22:44.421Z,87.87
2018-03-28T03:23:24.828Z,87.78
2018-03-28T03:24:05.169Z,87.78
2018-03-28T03:24:45.698Z,87.3
2018-03-28T03:25:26.283Z,87.3
2018-03-28T03:26:06.536Z,86.73
2018-03-28T03:26:46.971Z,87.11
2018-03-28T03:27:27.375Z,86.73
2018-03-28T03:28:07.766Z,87.21
2018-03-28T03:28:48.190Z,86.25
2018-03-28T03:29:28.657Z,87.21
2018-03-28T03:30:09.012Z,86.92
2018-03-28T03:30:49.826Z,86.44
2018-03-28T03:31:30.215Z,86.92
2018-03-28T03:32:10.606Z,86.63
2018-03-28T03:32:52.840Z,87.21
2018-03-28T03:33:33.209Z,87.21
2018-03-28T03:34:13.630Z,86.73
2018-03-28T03:34:54.017Z,87.21
2018-03-28T03:35:34.411Z,87.11
2018-03-28T03:36:14.799Z,87.68
2018-03-28T03:36:55.301Z,87.49
2018-03-28T03:37:35.650Z,87.49
2018-03-28T03:38:16.033Z,87.21
2018-03-28T03:38:56.470Z,87.49
2018-03-28T03:39:36.837Z,87.11
2018-03-28T03:41:35.158Z,87.21
2018-03-28T03:42:15.522Z,87.45
2018-03-28T03:42:56.007Z,87.3
2018-03-28T03:43:36.550Z,87.45
2018-03-28T03:44:16.979Z,87.54
2018-03-28T03:44:57.364Z,87.74
2018-03-28T03:45:37.862Z,88.16
2018-03-28T03:46:18.317Z,87.97
2018-03-28T03:46:58.765Z,87.93
2018-03-28T03:47:39.447Z,87.74
2018-03-28T03:48:19.586Z,87.97
2018-03-28T03:49:00.048Z,87.54
2018-03-28T03:49:42.884Z,87.16
2018-03-28T03:50:23.265Z,87.35
2018-03-28T03:51:03.776Z,87.87
2018-03-28T03:51:44.126Z,87.3
2018-03-28T03:52:24.571Z,87.59
2018-03-28T03:53:05.058Z,87.3
2018-03-28T03:53:45.660Z,87.16
2018-03-28T03:54:26.043Z,88.02
2018-03-28T03:55:06.484Z,88.12
2018-03-28T03:55:46.891Z,87.74
2018-03-28T03:56:27.411Z,87.35
2018-03-28T03:57:07.798Z,87.74
2018-03-28T03:57:48.199Z,87.93
2018-03-28T03:58:28.595Z,87.93
2018-03-28T03:59:09.007Z,87.97
2018-03-28T03:59:49.452Z,87.49
2018-03-28T04:00:29.838Z,87.11
2018-03-28T04:01:10.814Z,86.82
2018-03-28T04:01:51.360Z,87.3
2018-03-28T04:02:31.816Z,86.82
2018-03-28T04:04:27.850Z,88.07
2018-03-28T04:05:08.245Z,88.07
2018-03-28T04:47:23.576Z,91.55
2018-03-28T04:48:03.689Z,91.55
2018-03-28T04:48:44.015Z,91.74
2018-03-28T04:49:24.496Z,91.64
2018-03-28T04:50:04.869Z,91.36
2018-03-28T04:50:45.235Z,91.64
2018-03-28T04:51:25.701Z,90.79
2018-03-28T04:52:06.079Z,91.07
2018-03-28T04:52:46.651Z,91.74
2018-03-28T04:53:26.911Z,91.07
2018-03-28T04:54:07.362Z,91.74
2018-03-28T04:54:47.832Z,91.83
2018-03-28T04:55:28.163Z,90.98
2018-03-28T04:56:08.570Z,91.27
2018-03-28T04:56:49.004Z,91.36
2018-03-28T04:57:29.454Z,91.27
2018-03-28T04:58:09.933Z,92.12
2018-03-28T04:58:50.338Z,91.46
2018-03-28T04:59:30.708Z,91.07
2018-03-28T05:00:11.108Z,91.07
2018-03-28T05:00:51.479Z,91.07
2018-03-28T05:01:31.918Z,90.31
2018-03-28T05:02:12.283Z,91.07
2018-03-28T05:02:52.682Z,90.22
2018-03-28T05:03:33.071Z,90.22
2018-03-28T05:04:13.642Z,90.69
2018-03-28T05:04:53.865Z,90.31
2018-03-28T05:05:34.280Z,90.03
2018-03-28T05:06:14.682Z,89.83
2018-03-28T05:06:55.120Z,90.31
2018-03-28T05:07:35.567Z,89.93
2018-03-28T05:08:15.934Z,89.07
2018-03-28T05:08:56.339Z,89.59
2018-03-28T05:09:36.769Z,89.36
2018-03-28T05:10:17.226Z,89.02
2018-03-28T05:10:57.584Z,89.5
2018-03-28T05:11:37.935Z,88.59
2018-03-28T05:12:18.348Z,89.64
2018-03-28T05:12:58.749Z,89.64
2018-03-28T05:13:39.143Z,89.78
2018-03-28T05:14:19.596Z,88.59
2018-03-28T05:14:59.984Z,89.02
2018-03-28T05:15:40.425Z,89.31
2018-03-28T05:16:20.717Z,89.31
2018-03-28T05:17:01.176Z,89.36
2018-03-28T05:17:41.506Z,89.26
2018-03-28T05:18:21.905Z,89.54
2018-03-28T05:19:02.287Z,88.64
2018-03-28T05:19:42.701Z,89.31
2018-03-28T05:20:23.088Z,89.69
2018-03-28T05:21:03.554Z,89.12
2018-03-28T05:21:43.919Z,89.12
2018-03-28T05:22:24.308Z,88.73
2018-03-28T05:23:04.753Z,88.64
2018-03-28T05:23:45.110Z,88.35
2018-03-28T05:24:25.551Z,88.07
2018-03-28T05:25:05.944Z,88.26
2018-03-28T05:25:46.334Z,88.4
2018-03-28T05:26:26.741Z,88.73
2018-03-28T05:27:07.095Z,89.26
2018-03-28T05:27:47.486Z,89.21
2018-03-28T05:28:27.885Z,89.07
2018-03-28T05:29:08.274Z,88.73
2018-03-28T05:29:48.683Z,88.35
2018-03-28T05:30:29.106Z,87.97
2018-03-28T05:31:09.534Z,87.97
2018-03-28T05:31:49.924Z,87.87
2018-03-28T05:32:30.332Z,87.3
2018-03-28T05:33:10.705Z,87.3
2018-03-28T05:33:51.294Z,87.21
2018-03-28T05:34:31.591Z,87.11
2018-03-28T05:35:12.066Z,87.49
2018-03-28T05:35:52.407Z,87.11
2018-03-28T05:36:32.837Z,86.54
2018-03-28T05:37:13.186Z,86.92
2018-03-28T05:37:53.619Z,86.63
2018-03-28T05:38:33.985Z,86.54
2018-03-28T05:39:14.389Z,86.54
2018-03-28T05:39:54.778Z,86.63
2018-03-28T05:40:35.237Z,86.06
2018-03-28T05:41:15.596Z,87.21
2018-03-28T05:41:56.022Z,87.3
2018-03-28T05:42:36.444Z,86.54
2018-03-28T05:43:16.789Z,86.44
2018-03-28T05:43:57.210Z,86.44
2018-03-28T05:44:37.664Z,86.25
2018-03-28T05:45:18.062Z,85.53
2018-03-28T05:45:58.465Z,85.68
2018-03-28T05:46:39.140Z,85.97
2018-03-28T05:47:19.501Z,85.77
2018-03-28T05:47:59.916Z,85.58
2018-03-28T05:48:40.324Z,86.44
2018-03-28T05:49:20.849Z,86.82
2018-03-28T05:50:01.326Z,87.4
2018-03-28T05:50:41.680Z,86.73
2018-03-28T05:51:22.150Z,87.4
2018-03-28T05:52:02.609Z,86.73
2018-03-28T05:52:43.326Z,86.16
2018-03-28T05:53:23.738Z,86.16
2018-03-28T05:54:04.115Z,86.25
2018-03-28T05:54:44.638Z,86.16
2018-03-28T05:55:25.480Z,86.25
2018-03-28T05:56:06.339Z,86.16
2018-03-28T05:56:46.860Z,85.3
2018-03-28T05:57:27.755Z,85.53
2018-03-28T05:58:08.447Z,85.39
2018-03-28T05:58:49.865Z,85.49
2018-03-28T05:59:29.554Z,85.49
2018-03-28T06:00:10.170Z,86.63
2018-03-28T06:00:51.175Z,86.82
2018-03-28T06:01:31.675Z,85.97
2018-03-28T06:02:12.768Z,86.63
2018-03-28T06:02:53.298Z,86.63
2018-03-28T06:03:33.698Z,85.97
2018-03-28T06:04:14.249Z,86.44
2018-03-28T06:04:54.605Z,86.82
2018-03-28T06:05:34.990Z,86.63
2018-03-28T06:06:15.425Z,85.97
2018-03-28T06:06:55.806Z,86.82
2018-03-28T06:07:36.324Z,85.97
2018-03-28T06:09:28.600Z,86.92
2018-03-28T06:10:09.014Z,86.73
2018-03-28T06:10:49.448Z,86.25
2018-03-28T06:11:29.829Z,85.77
2018-03-28T06:12:10.225Z,85.68
2018-03-28T06:12:50.629Z,85.49
2018-03-28T06:13:31.075Z,85.11
2018-03-28T06:14:11.458Z,85.49
2018-03-28T06:14:51.837Z,85.3
2018-03-28T06:15:32.227Z,85.68
2018-03-28T06:16:12.634Z,85.53
2018-03-28T06:16:53.062Z,85.72
2018-03-28T06:17:33.457Z,85.39
2018-03-28T06:18:13.882Z,85.11
2018-03-28T06:18:54.303Z,85.21
2018-03-28T06:19:34.701Z,85.11
2018-03-28T06:20:15.089Z,85.39
2018-03-28T06:20:55.463Z,85.68
2018-03-28T06:21:35.861Z,85.3
2018-03-28T06:22:16.293Z,85.77
2018-03-28T06:22:56.732Z,85.58
2018-03-28T06:23:37.108Z,85.87
2018-03-28T06:24:17.584Z,86.06
2018-03-28T06:24:57.961Z,85.97
2018-03-28T06:25:38.460Z,86.35
2018-03-28T06:26:18.895Z,86.44
2018-03-28T06:26:59.854Z,86.16
2018-03-28T06:27:39.760Z,86.25
2018-03-28T06:28:20.125Z,86.06
2018-03-28T06:29:00.571Z,86.06
2018-03-28T06:29:41.169Z,85.97
2018-03-28T06:31:29.111Z,86.44
2018-03-28T06:32:09.436Z,86.3
2018-03-28T06:32:49.894Z,86.49
2018-03-28T06:33:30.265Z,86.59
2018-03-28T06:34:10.721Z,86.54
2018-03-28T06:34:51.167Z,87.26
2018-03-28T06:35:31.536Z,87.07
2018-03-28T06:36:12.065Z,86.73
2018-03-28T06:36:52.482Z,87.11
2018-03-28T06:37:32.974Z,86.92
2018-03-28T06:38:13.431Z,87.54
2018-03-28T06:38:53.816Z,87.07
2018-03-28T06:39:34.396Z,87.35
2018-03-28T06:40:14.938Z,86.98
2018-03-28T06:40:55.304Z,86.78
2018-03-28T06:41:35.818Z,86.59
2018-03-28T06:42:16.249Z,87.45
2018-03-28T06:42:56.658Z,87.26
2018-03-28T06:43:37.066Z,87.26
2018-03-28T06:44:17.518Z,87.83
2018-03-28T06:44:57.952Z,87.93
2018-03-28T06:45:38.346Z,87.93
2018-03-28T06:46:18.883Z,87.83
2018-03-28T06:46:59.205Z,88.31
2018-03-28T06:47:39.622Z,87.93
2018-03-28T06:48:20.026Z,88.02
2018-03-28T06:49:00.479Z,88.59
2018-03-28T06:49:40.872Z,88.5
2018-03-28T06:50:22.262Z,88.59
2018-03-28T06:51:01.912Z,88.69
2018-03-28T06:51:42.331Z,89.36
2018-03-28T06:52:22.750Z,89.36
2018-03-28T06:53:03.150Z,89.36
2018-03-28T06:53:43.592Z,89.36
2018-03-28T06:54:24.006Z,89.64
2018-03-28T06:55:04.459Z,89.54
2018-03-28T06:55:44.898Z,89.26
2018-03-28T06:56:25.623Z,89.6
2018-03-28T06:57:06.072Z,90.31
2018-03-28T06:57:46.504Z,90.03
2018-03-28T06:58:26.895Z,90.22
2018-03-28T06:59:07.328Z,90.41
2018-03-28T06:59:47.824Z,90.12
2018-03-28T07:00:28.248Z,90.5
2018-03-28T07:01:08.659Z,90.03
2018-03-28T07:01:49.083Z,89.93
2018-03-28T07:02:29.487Z,90.41
2018-03-28T07:03:09.934Z,90.41
2018-03-28T07:03:50.369Z,90.79
2018-03-28T07:04:30.750Z,89.83
2018-03-28T07:05:11.242Z,90.22
2018-03-28T07:05:51.606Z,90.12
2018-03-28T07:06:32.042Z,90.41
2018-03-28T07:07:12.490Z,89.83
2018-03-28T07:07:52.954Z,89.93
2018-03-28T07:08:33.469Z,89.64
2018-03-28T07:09:14.030Z,89.54
2018-03-28T07:10:31.148Z,89.64
2018-03-28T07:12:20.662Z,90.22
2018-03-28T07:13:01.004Z,89.54
2018-03-28T07:13:42.018Z,90.41
2018-03-28T07:14:22.963Z,90.31
2018-03-28T07:16:11.575Z,88.88
2018-03-28T07:16:51.446Z,88.69
2018-03-28T07:17:31.838Z,88.02
2018-03-28T07:18:12.278Z,87.54
2018-03-28T07:18:52.737Z,88.98
2018-03-28T07:19:33.197Z,88.78
2018-03-28T07:20:13.633Z,88.4
2018-03-28T07:20:54.204Z,88.69
2018-03-28T07:21:35.508Z,88.88
2018-03-28T07:22:15.965Z,89.45
2018-03-28T07:22:56.392Z,89.17
2018-03-28T07:23:36.789Z,89.45
2018-03-28T07:24:17.242Z,89.36
2018-03-28T07:24:57.598Z,88.69
2018-03-28T07:25:38.067Z,88.69
2018-03-28T07:26:18.579Z,88.98
2018-03-28T07:26:58.897Z,88.59
2018-03-28T07:27:39.368Z,88.59
2018-03-28T07:28:19.744Z,88.59
2018-03-28T07:29:00.288Z,88.98
2018-03-28T07:29:40.587Z,89.17
2018-03-28T07:30:21.012Z,89.45
2018-03-28T07:31:01.436Z,89.45
2018-03-28T07:31:41.896Z,88.59
2018-03-28T07:32:22.300Z,88.69
2018-03-28T07:33:02.721Z,89.26
2018-03-28T07:33:43.115Z,89.36
2018-03-28T07:34:23.562Z,89.45
2018-03-28T07:35:04.003Z,88.98
2018-03-28T07:35:44.442Z,88.31
2018-03-28T07:36:25.011Z,88.02
2018-03-28T07:37:05.365Z,88.59
2018-03-28T07:37:45.837Z,88.12
2018-03-28T07:38:26.311Z,87.83
2018-03-28T07:39:06.715Z,87.49
2018-03-28T07:39:47.115Z,87.3
2018-03-28T07:40:27.653Z,87.87
2018-03-28T07:41:08.048Z,88.16
2018-03-28T07:41:48.528Z,87.97
2018-03-28T07:42:28.938Z,87.59
2018-03-28T07:43:09.486Z,87.59
2018-03-28T07:43:49.878Z,87.59
2018-03-28T07:44:30.388Z,87.3
2018-03-28T07:45:10.842Z,87.21
2018-03-28T07:45:51.295Z,87.21
2018-03-28T07:46:31.672Z,86.73
2018-03-28T07:47:12.204Z,87.11
2018-03-28T07:47:52.649Z,87.3
2018-03-28T07:48:33.082Z,87.3
2018-03-28T07:49:13.653Z,87.21
2018-03-28T07:49:55.494Z,87.4
2018-03-28T07:50:35.311Z,86.54
2018-03-28T07:51:16.987Z,86.82
2018-03-28T07:53:09.965Z,85.49
2018-03-28T07:53:51.233Z,86.06
2018-03-28T07:54:32.079Z,86.16
2018-03-28T07:55:12.810Z,86.16
2018-03-28T07:55:53.515Z,85.87
2018-03-28T07:56:34.066Z,86.44
2018-03-28T07:57:14.533Z,86.25
2018-03-28T07:57:56.799Z,86.16
2018-03-28T07:58:37.785Z,85.39
2018-03-28T07:59:43.751Z,85.49
2018-03-28T08:01:57.888Z,85.39
2018-03-28T08:02:38.173Z,85.77
2018-03-28T08:03:18.643Z,84.92
2018-03-28T08:03:59.298Z,85.11
2018-03-28T08:04:39.742Z,85.3
2018-03-28T08:05:20.812Z,84.06
2018-03-28T08:06:01.509Z,84.72
2018-03-28T08:06:41.458Z,84.16
2018-03-28T08:07:21.938Z,84.63
2018-03-28T08:08:03.102Z,84.49
2018-03-28T08:08:44.128Z,84.72
2018-03-28T08:09:24.576Z,84.63
2018-03-28T08:10:04.990Z,85.11
2018-03-28T08:10:45.401Z,84.92
2018-03-28T08:11:25.804Z,85.39
2018-03-28T08:12:06.515Z,85.01
2018-03-28T08:12:46.959Z,84.82
2018-03-28T08:13:27.393Z,83.77
2018-03-28T08:14:08.556Z,83.77
2018-03-28T08:14:48.974Z,85.77
2018-03-28T08:15:30.320Z,84.16
2018-03-28T08:16:09.987Z,84.72
2018-03-28T08:16:50.626Z,84.16
2018-03-28T08:17:31.243Z,83.29
2018-03-28T08:18:12.151Z,83.48
2018-03-28T08:18:52.534Z,83.39
2018-03-28T08:19:33.021Z,83.11
2018-03-28T08:20:15.344Z,82.63
2018-03-28T08:20:55.564Z,83.29
2018-03-28T08:21:36.281Z,83.29
2018-03-28T08:22:16.725Z,83.11
2018-03-28T08:22:57.525Z,82.53
2018-03-28T08:23:37.945Z,81.96
2018-03-28T08:24:18.500Z,83.29
2018-03-28T08:24:59.081Z,83.39
2018-03-28T08:25:39.514Z,83.29
2018-03-28T08:26:20.267Z,83.34
2018-03-28T08:27:02.482Z,81.52
2018-03-28T08:27:43.170Z,81.24
2018-03-28T08:28:23.654Z,81.48
2018-03-28T08:29:04.088Z,81.96
2018-03-28T08:29:44.488Z,82.91
2018-03-28T08:30:25.034Z,82.29
2018-03-28T08:31:05.579Z,81.96
2018-03-28T08:31:46.591Z,81.96
2018-03-28T08:32:27.539Z,83.24
2018-03-28T08:33:07.910Z,83.29
2018-03-28T08:33:48.323Z,82.67
2018-03-28T08:34:28.752Z,82.24
2018-03-28T08:35:09.159Z,82.53
2018-03-28T08:35:49.565Z,83.2
2018-03-28T08:36:31.376Z,82.43
2018-03-28T08:37:11.227Z,82.48
2018-03-28T08:37:52.084Z,81.86
2018-03-28T08:38:33.399Z,81.96
2018-03-28T08:39:13.251Z,82.53
2018-03-28T08:39:53.618Z,82.34
2018-03-28T08:40:34.152Z,82.57
2018-03-28T08:41:14.605Z,82.24
2018-03-28T08:41:55.068Z,82.24
2018-03-28T08:42:36.139Z,81.67
2018-03-28T08:43:16.527Z,82.19
2018-03-28T08:43:56.905Z,82.29
2018-03-28T08:44:37.350Z,81.81
2018-03-28T08:45:18.392Z,80.95
2018-03-28T08:45:58.766Z,81.14
2018-03-28T08:46:40.793Z,81.43
2018-03-28T08:47:21.305Z,81.62
2018-03-28T08:48:01.910Z,80.95
2018-03-28T08:48:42.291Z,81.52
2018-03-28T08:49:22.701Z,81.33
2018-03-28T08:50:03.198Z,82.09
2018-03-28T08:50:43.641Z,81.52
2018-03-28T08:51:28.574Z,80.85
2018-03-28T08:52:11.233Z,79.71
2018-03-28T08:52:51.604Z,80.38
2018-03-28T08:53:32.061Z,80.19
2018-03-28T08:54:12.413Z,79.71
2018-03-28T08:54:52.856Z,80.28
2018-03-28T08:55:33.287Z,81.14
2018-03-28T08:56:14.051Z,80.19
2018-03-28T08:56:54.557Z,79.61
2018-03-28T08:57:34.968Z,80.38
2018-03-28T08:58:15.597Z,81.9
2018-03-28T08:58:56.012Z,80.19
2018-03-28T08:59:39.001Z,79.71
2018-03-28T09:00:20.537Z,80.57
2018-03-28T09:01:00.767Z,80.85
2018-03-28T09:01:41.694Z,80.95
2018-03-28T09:02:21.906Z,80.62
2018-03-28T09:03:02.306Z,80.95
2018-03-28T09:03:42.744Z,80.47
2018-03-28T09:04:23.250Z,80.66
2018-03-28T09:05:03.653Z,80.38
2018-03-28T09:05:44.178Z,80.57
2018-03-28T09:06:24.482Z,80.85
2018-03-28T09:07:04.896Z,80.38
2018-03-28T09:07:45.340Z,80.9
2018-03-28T09:08:25.897Z,78.79
2018-03-28T09:09:07.357Z,78.22
2018-03-28T09:09:47.385Z,78.31
2018-03-28T09:10:27.795Z,78.7
2018-03-28T09:11:08.309Z,79.27
2018-03-28T09:11:49.032Z,79.65
2018-03-28T09:12:29.418Z,78.51
2018-03-28T09:13:09.849Z,77.94
2018-03-28T09:13:50.272Z,78.13
2018-03-28T09:14:31.769Z,78.41
2018-03-28T09:39:13.866Z,75.81
2018-03-28T09:41:00.191Z,74.57
2018-03-28T09:41:40.621Z,74.38
2018-03-28T09:42:21.043Z,74.38
2018-03-28T09:43:01.603Z,75.14
2018-03-28T09:43:42.034Z,73.8
2018-03-28T09:44:22.572Z,73.9
2018-03-28T09:45:02.911Z,73.61
2018-03-28T09:45:43.497Z,73.52
2018-03-28T09:46:23.971Z,74.09
2018-03-28T09:47:04.408Z,73.04
2018-03-28T09:47:44.818Z,74.48
2018-03-28T09:48:25.205Z,72.94
2018-03-28T09:49:05.667Z,71.99
2018-03-28T09:49:46.045Z,71.51
2018-03-28T09:50:26.454Z,72.47
2018-03-28T09:51:06.890Z,72.98
2018-03-28T09:51:47.287Z,73.55
2018-03-28T09:52:27.699Z,72.75
2018-03-28T09:53:08.107Z,71.26
2018-03-28T09:53:48.500Z,72.02
2018-03-28T09:54:29.144Z,71.8
2018-03-28T09:55:09.529Z,71.8
2018-03-28T09:55:49.973Z,70.65
2018-03-28T09:56:30.520Z,71.7
2018-03-28T09:57:10.992Z,71.51
2018-03-28T09:57:51.388Z,71.99
2018-03-28T09:58:31.750Z,71.51
2018-03-28T09:59:12.172Z,72.75
2018-03-28T09:59:52.590Z,72.56
2018-03-28T10:00:32.966Z,73.14
2018-03-28T10:01:13.400Z,73.43
2018-03-28T10:01:54.334Z,73.04
2018-03-28T10:02:35.563Z,72.85
2018-03-28T10:03:16.415Z,71.8
2018-03-28T10:03:58.475Z,71.8
2018-03-28T10:04:38.982Z,70.84
2018-03-28T10:05:19.597Z,70.07
2018-03-28T10:05:59.971Z,70.01
2018-03-28T10:06:40.504Z,69.6
2018-03-28T10:07:21.218Z,70.07
2018-03-28T10:46:01.154Z,73.12
2018-03-28T10:46:41.678Z,73.32